Time,TemperatureF,DewpointF,PressureIn,WindDirection,WindDirectionDegrees,WindSpeedMPH,WindSpeedGustMPH,Humidity,HourlyPrecipIn,Conditions,Clouds,dailyrainin,SoftwareType,DateUTC
2013-05-31 00:04:00,-999.0,-99.9,28.73,North,-999,-999.0,-999.0,-999,0.00,,,0.00,WSDL version 420,2013-05-31 06:04:00,
2013-05-31 00:09:00,-999.0,-99.9,28.73,North,-999,-999.0,-999.0,-999,0.00,,,0.00,WSDL version 420,2013-05-31 06:09:00,
2013-05-31 00:14:00,-999.0,-99.9,28.73,North,-999,-999.0,-999.0,-999,0.00,,,0.00,WSDL version 420,2013-05-31 06:14:00,
2013-05-31 00:19:00,-999.0,-99.9,28.73,North,-999,-999.0,-999.0,-999,0.00,,,0.00,WSDL version 420,2013-05-31 06:19:00,
2013-05-31 00:24:00,42.6,42.6,28.73,North,-999,-999.0,-999.0,100,0.00,,,0.00,WSDL version 420,2013-05-31 06:24:00,
2013-05-31 00:29:00,42.6,42.6,28.70,North,-999,-999.0,-999.0,100,0.00,,,0.00,WSDL version 420,2013-05-31 06:29:00,
2013-05-31 00:34:00,42.6,42.6,28.70,North,-999,-999.0,-999.0,100,0.00,,,0.00,WSDL version 420,2013-05-31 06:34:00,
2013-05-31 00:39:00,42.4,42.4,28.70,North,-999,-999.0,-999.0,100,0.00,,,0.00,WSDL version 420,2013-05-31 06:39:00,
2013-05-31 00:44:00,42.4,42.4,28.70,North,-999,-999.0,-999.0,100,0.00,,,0.00,WSDL version 420,2013-05-31 06:44:00,
2013-05-31 00:49:00,42.4,42.4,28.73,North,-999,-999.0,-999.0,100,0.00,,,0.00,WSDL version 420,2013-05-31 06:49:00,
2013-05-31 00:54:00,42.5,42.5,28.73,North,-999,-999.0,-999.0,100,0.00,,,0.00,WSDL version 420,2013-05-31 06:54:00,
2013-05-31 00:59:00,42.4,42.4,28.70,North,-999,-999.0,-999.0,100,0.00,,,0.00,WSDL version 420,2013-05-31 06:59:00,
2013-05-31 01:04:00,42.4,42.4,28.70,North,-999,-999.0,-999.0,100,0.00,,,0.00,WSDL version 420,2013-05-31 07:04:00,
2013-05-31 01:09:00,42.4,42.4,28.70,North,-999,-999.0,-999.0,100,0.00,,,0.00,WSDL version 420,2013-05-31 07:09:00,
2013-05-31 01:14:00,42.4,42.4,28.73,North,-999,-999.0,-999.0,100,0.00,,,0.00,WSDL version 420,2013-05-31 07:14:00,
2013-05-31 01:19:00,42.4,42.0,28.73,North,-999,-999.0,-999.0,98,0.00,,,0.00,WSDL version 420,2013-05-31 07:19:00,
2013-05-31 01:24:00,42.3,41.2,28.73,North,-999,-999.0,-999.0,94,0.00,,,0.00,WSDL version 420,2013-05-31 07:24:00,
2013-05-31 01:29:00,42.3,40.5,28.70,North,-999,-999.0,-999.0,92,0.00,,,0.00,WSDL version 420,2013-05-31 07:29:00,
2013-05-31 01:34:00,42.4,39.7,28.70,North,-999,-999.0,-999.0,88,0.00,,,0.00,WSDL version 420,2013-05-31 07:34:00,
2013-05-31 01:39:00,42.4,39.3,28.70,North,-999,-999.0,-999.0,89,0.00,,,0.00,WSDL version 420,2013-05-31 07:39:00,
2013-05-31 01:44:00,42.4,39.1,28.70,North,-999,-999.0,-999.0,87,0.00,,,0.00,WSDL version 420,2013-05-31 07:44:00,
2013-05-31 01:49:00,42.4,38.8,28.70,North,-999,-999.0,-999.0,87,0.00,,,0.00,WSDL version 420,2013-05-31 07:49:00,
2013-05-31 01:54:00,42.5,38.4,28.70,North,-999,-999.0,-999.0,84,0.00,,,0.00,WSDL version 420,2013-05-31 07:54:00,
2013-05-31 01:59:00,43.1,37.8,28.73,North,-999,-999.0,-999.0,77,0.00,,,0.00,WSDL version 420,2013-05-31 07:59:00,
2013-05-31 02:04:00,43.6,34.5,28.73,North,-999,-999.0,-999.0,68,0.00,,,0.00,WSDL version 420,2013-05-31 08:04:00,
2013-05-31 02:09:00,43.7,33.6,28.73,North,-999,-999.0,-999.0,67,0.00,,,0.00,WSDL version 420,2013-05-31 08:09:00,
2013-05-31 02:14:00,43.7,33.4,28.73,North,-999,-999.0,-999.0,66,0.00,,,0.00,WSDL version 420,2013-05-31 08:14:00,
2013-05-31 02:19:00,43.7,33.1,28.73,North,-999,-999.0,-999.0,66,0.00,,,0.00,WSDL version 420,2013-05-31 08:19:00,
2013-05-31 02:24:00,43.6,33.6,28.73,North,-999,-999.0,-999.0,68,0.00,,,0.00,WSDL version 420,2013-05-31 08:24:00,
2013-05-31 02:29:00,43.5,33.7,28.73,North,-999,-999.0,-999.0,68,-99.99,,,-99.99,WSDL version 420,2013-05-31 08:29:00,
2013-05-31 02:34:00,43.5,34.2,28.70,North,-999,-999.0,-999.0,70,0.00,,,0.00,WSDL version 420,2013-05-31 08:34:00,
2013-05-31 02:39:00,43.5,34.8,28.70,North,-999,-999.0,-999.0,71,0.00,,,0.00,WSDL version 420,2013-05-31 08:39:00,
2013-05-31 02:44:00,43.4,34.9,28.73,North,-999,-999.0,-999.0,72,0.00,,,0.00,WSDL version 420,2013-05-31 08:44:00,
2013-05-31 02:49:00,43.3,35.4,28.73,North,-999,-999.0,-999.0,74,0.00,,,0.00,WSDL version 420,2013-05-31 08:49:00,
2013-05-31 02:54:00,43.2,36.2,28.73,North,-999,-999.0,-999.0,77,0.00,,,0.00,WSDL version 420,2013-05-31 08:54:00,
2013-05-31 02:59:00,43.2,36.4,28.70,North,-999,-999.0,-999.0,77,0.00,,,0.00,WSDL version 420,2013-05-31 08:59:00,
2013-05-31 03:04:00,43.1,37.0,28.70,North,-999,-999.0,-999.0,80,0.00,,,0.00,WSDL version 420,2013-05-31 09:04:00,
2013-05-31 03:09:00,43.0,37.6,28.70,North,-999,-999.0,-999.0,82,0.00,,,0.00,WSDL version 420,2013-05-31 09:09:00,
2013-05-31 03:14:00,43.0,37.7,28.70,North,-999,-999.0,-999.0,81,0.00,,,0.00,WSDL version 420,2013-05-31 09:14:00,
2013-05-31 03:19:00,43.0,37.6,28.70,North,-999,-999.0,-999.0,81,0.00,,,0.00,WSDL version 420,2013-05-31 09:19:00,
2013-05-31 03:24:00,43.0,37.9,28.70,North,-999,-999.0,-999.0,82,0.00,,,0.00,WSDL version 420,2013-05-31 09:24:00,
2013-05-31 03:29:00,43.0,37.9,28.70,North,-999,-999.0,-999.0,82,0.00,,,0.00,WSDL version 420,2013-05-31 09:29:00,
2013-05-31 03:34:00,43.0,38.0,28.73,North,-999,-999.0,-999.0,82,0.00,,,0.00,WSDL version 420,2013-05-31 09:34:00,
2013-05-31 03:39:00,43.0,38.3,28.73,North,-999,-999.0,-999.0,83,0.00,,,0.00,WSDL version 420,2013-05-31 09:39:00,
2013-05-31 03:44:00,43.0,38.3,28.73,North,-999,-999.0,-999.0,83,0.00,,,0.00,WSDL version 420,2013-05-31 09:44:00,
2013-05-31 03:49:00,43.0,38.3,28.70,North,-999,-999.0,-999.0,83,0.00,,,0.00,WSDL version 420,2013-05-31 09:49:00,
2013-05-31 03:54:00,43.1,38.2,28.70,North,-999,-999.0,-999.0,82,0.00,,,0.00,WSDL version 420,2013-05-31 09:54:00,
2013-05-31 03:59:00,43.2,37.7,28.70,North,-999,-999.0,-999.0,80,0.00,,,0.00,WSDL version 420,2013-05-31 09:59:00,
2013-05-31 04:04:00,43.2,37.4,28.70,North,-999,-999.0,-999.0,80,0.00,,,0.00,WSDL version 420,2013-05-31 10:04:00,
2013-05-31 04:09:00,43.1,37.2,28.70,North,-999,-999.0,-999.0,80,0.00,,,0.00,WSDL version 420,2013-05-31 10:09:00,
2013-05-31 04:14:00,43.2,37.2,28.70,North,-999,-999.0,-999.0,79,0.00,,,0.00,WSDL version 420,2013-05-31 10:14:00,
2013-05-31 04:19:00,43.2,37.3,28.70,North,-999,-999.0,-999.0,80,0.00,,,0.00,WSDL version 420,2013-05-31 10:19:00,
2013-05-31 04:24:00,43.2,36.8,28.70,North,-999,-999.0,-999.0,78,0.00,,,0.00,WSDL version 420,2013-05-31 10:24:00,
2013-05-31 04:29:00,43.2,36.4,28.70,North,-999,-999.0,-999.0,77,0.00,,,0.00,WSDL version 420,2013-05-31 10:29:00,
2013-05-31 04:34:00,43.2,36.4,28.70,North,-999,-999.0,-999.0,77,0.00,,,0.00,WSDL version 420,2013-05-31 10:34:00,
2013-05-31 04:39:00,43.2,36.4,28.70,North,-999,-999.0,-999.0,77,0.00,,,0.00,WSDL version 420,2013-05-31 10:39:00,
2013-05-31 04:44:00,43.2,36.1,28.70,North,-999,-999.0,-999.0,76,0.00,,,0.00,WSDL version 420,2013-05-31 10:44:00,
2013-05-31 04:49:00,43.2,36.2,28.70,North,-999,-999.0,-999.0,76,0.00,,,0.00,WSDL version 420,2013-05-31 10:49:00,
2013-05-31 04:54:00,43.3,36.0,28.70,North,-999,-999.0,-999.0,75,0.00,,,0.00,WSDL version 420,2013-05-31 10:54:00,
2013-05-31 04:59:00,43.3,36.0,28.70,North,-999,-999.0,-999.0,75,0.00,,,0.00,WSDL version 420,2013-05-31 10:59:00,
2013-05-31 05:04:00,43.3,35.9,28.70,North,-999,-999.0,-999.0,75,0.00,,,0.00,WSDL version 420,2013-05-31 11:04:00,
2013-05-31 05:09:00,43.2,36.0,28.70,North,-999,-999.0,-999.0,76,0.00,,,0.00,WSDL version 420,2013-05-31 11:09:00,
2013-05-31 05:14:00,43.3,36.1,28.70,North,-999,-999.0,-999.0,76,0.00,,,0.00,WSDL version 420,2013-05-31 11:14:00,
2013-05-31 05:19:00,-999.0,-99.9,28.70,North,-999,-999.0,-999.0,-999,0.00,,,0.00,WSDL version 420,2013-05-31 11:19:00,
2013-05-31 05:24:00,43.2,36.2,28.70,North,-999,-999.0,-999.0,76,0.00,,,0.00,WSDL version 420,2013-05-31 11:24:00,
2013-05-31 05:29:00,43.2,36.2,28.70,North,-999,-999.0,-999.0,76,0.03,,,0.03,WSDL version 420,2013-05-31 11:29:00,
2013-05-31 05:34:00,43.3,36.3,28.70,North,-999,-999.0,-999.0,76,0.03,,,0.03,WSDL version 420,2013-05-31 11:34:00,
2013-05-31 05:39:00,43.3,36.3,28.70,North,-999,-999.0,-999.0,76,0.03,,,0.03,WSDL version 420,2013-05-31 11:39:00,
2013-05-31 05:44:00,43.3,36.0,28.70,North,-999,-999.0,-999.0,75,0.03,,,0.03,WSDL version 420,2013-05-31 11:44:00,
2013-05-31 05:49:00,43.2,35.5,28.70,North,-999,-999.0,-999.0,74,0.03,,,0.03,WSDL version 420,2013-05-31 11:49:00,
2013-05-31 05:54:00,43.2,35.6,28.70,North,-999,-999.0,-999.0,75,0.03,,,0.03,WSDL version 420,2013-05-31 11:54:00,
2013-05-31 05:59:00,43.2,35.4,28.70,North,-999,-999.0,-999.0,74,0.03,,,0.03,WSDL version 420,2013-05-31 11:59:00,
2013-05-31 06:04:00,43.2,35.8,28.70,North,-999,-999.0,-999.0,75,0.03,,,0.03,WSDL version 420,2013-05-31 12:04:00,
2013-05-31 06:09:00,43.3,35.7,28.70,North,-999,-999.0,-999.0,74,0.03,,,0.03,WSDL version 420,2013-05-31 12:09:00,
2013-05-31 06:14:00,43.3,35.4,28.70,North,-999,-999.0,-999.0,73,0.03,,,0.03,WSDL version 420,2013-05-31 12:14:00,
2013-05-31 06:19:00,43.3,35.3,28.70,North,-999,-999.0,-999.0,73,0.03,,,0.03,WSDL version 420,2013-05-31 12:19:00,
2013-05-31 06:24:00,43.3,35.4,28.70,North,-999,-999.0,-999.0,73,0.03,,,0.03,WSDL version 420,2013-05-31 12:24:00,
2013-05-31 06:29:00,43.3,35.1,28.70,North,-999,-999.0,-999.0,72,0.00,,,0.03,WSDL version 420,2013-05-31 12:29:00,
2013-05-31 06:34:00,43.4,34.9,28.70,North,-999,-999.0,-999.0,71,0.00,,,0.03,WSDL version 420,2013-05-31 12:34:00,
2013-05-31 06:39:00,43.5,34.7,28.70,North,-999,-999.0,-999.0,71,0.00,,,0.03,WSDL version 420,2013-05-31 12:39:00,
2013-05-31 06:44:00,43.3,34.6,28.70,North,-999,-999.0,-999.0,71,0.00,,,0.03,WSDL version 420,2013-05-31 12:44:00,
2013-05-31 06:49:00,43.3,34.9,28.70,North,-999,-999.0,-999.0,72,0.00,,,0.03,WSDL version 420,2013-05-31 12:49:00,
2013-05-31 06:54:00,-999.0,-99.9,28.70,North,-999,-999.0,-999.0,-999,0.00,,,0.03,WSDL version 420,2013-05-31 12:54:00,
2013-05-31 06:59:00,43.5,35.1,28.70,North,-999,-999.0,-999.0,72,0.00,,,0.03,WSDL version 420,2013-05-31 12:59:00,
2013-05-31 07:04:00,43.7,34.9,28.70,North,-999,-999.0,-999.0,70,0.00,,,0.03,WSDL version 420,2013-05-31 13:04:00,
2013-05-31 07:09:00,43.7,34.0,28.70,North,-999,-999.0,-999.0,68,0.00,,,0.03,WSDL version 420,2013-05-31 13:09:00,
2013-05-31 07:14:00,43.8,34.3,28.73,North,-999,-999.0,-999.0,69,0.00,,,0.03,WSDL version 420,2013-05-31 13:14:00,
2013-05-31 07:19:00,43.9,34.1,28.73,North,-999,-999.0,-999.0,67,0.00,,,0.03,WSDL version 420,2013-05-31 13:19:00,
2013-05-31 07:24:00,44.1,33.8,28.73,North,-999,-999.0,-999.0,67,0.00,,,0.03,WSDL version 420,2013-05-31 13:24:00,
2013-05-31 07:29:00,44.2,33.7,28.70,North,-999,-999.0,-999.0,66,0.00,,,0.03,WSDL version 420,2013-05-31 13:29:00,
2013-05-31 07:34:00,44.5,33.7,28.70,North,-999,-999.0,-999.0,65,0.00,,,0.03,WSDL version 420,2013-05-31 13:34:00,
2013-05-31 07:39:00,44.7,33.3,28.70,North,-999,-999.0,-999.0,64,0.00,,,0.03,WSDL version 420,2013-05-31 13:39:00,
2013-05-31 07:44:00,45.0,33.4,28.70,North,-999,-999.0,-999.0,64,0.00,,,0.03,WSDL version 420,2013-05-31 13:44:00,
2013-05-31 07:49:00,45.1,33.2,28.70,North,-999,-999.0,-999.0,63,0.00,,,0.03,WSDL version 420,2013-05-31 13:49:00,
2013-05-31 07:54:00,45.3,33.2,28.70,North,-999,-999.0,-999.0,63,0.00,,,0.03,WSDL version 420,2013-05-31 13:54:00,
2013-05-31 07:59:00,45.3,32.8,28.70,North,-999,-999.0,-999.0,61,0.00,,,0.03,WSDL version 420,2013-05-31 13:59:00,
2013-05-31 08:04:00,45.2,32.1,28.70,North,-999,-999.0,-999.0,60,0.00,,,0.03,WSDL version 420,2013-05-31 14:04:00,
2013-05-31 08:09:00,45.4,32.7,28.70,North,-999,-999.0,-999.0,61,0.00,,,0.03,WSDL version 420,2013-05-31 14:09:00,
2013-05-31 08:14:00,45.5,32.3,28.70,North,-999,-999.0,-999.0,59,0.00,,,0.03,WSDL version 420,2013-05-31 14:14:00,
2013-05-31 08:19:00,45.4,32.2,28.70,North,-999,-999.0,-999.0,60,0.00,,,0.03,WSDL version 420,2013-05-31 14:19:00,
2013-05-31 08:24:00,45.4,32.3,28.70,North,-999,-999.0,-999.0,60,0.00,,,0.03,WSDL version 420,2013-05-31 14:24:00,
2013-05-31 08:29:00,45.5,32.6,28.70,North,-999,-999.0,-999.0,61,0.00,,,0.03,WSDL version 420,2013-05-31 14:29:00,
2013-05-31 08:34:00,45.8,32.7,28.70,North,-999,-999.0,-999.0,60,0.00,,,0.03,WSDL version 420,2013-05-31 14:34:00,
2013-05-31 08:39:00,45.7,32.2,28.70,North,-999,-999.0,-999.0,59,0.00,,,0.03,WSDL version 420,2013-05-31 14:39:00,
2013-05-31 08:44:00,45.7,31.8,28.70,North,-999,-999.0,-999.0,58,0.00,,,0.03,WSDL version 420,2013-05-31 14:44:00,
2013-05-31 08:49:00,45.6,32.0,28.70,North,-999,-999.0,-999.0,58,0.00,,,0.03,WSDL version 420,2013-05-31 14:49:00,
2013-05-31 08:54:00,45.5,31.6,28.70,North,-999,-999.0,-999.0,58,0.00,,,0.03,WSDL version 420,2013-05-31 14:54:00,
2013-05-31 08:59:00,45.5,31.3,28.70,North,-999,-999.0,-999.0,57,0.00,,,0.03,WSDL version 420,2013-05-31 14:59:00,
2013-05-31 09:04:00,45.6,31.1,28.70,North,-999,-999.0,-999.0,57,0.00,,,0.03,WSDL version 420,2013-05-31 15:04:00,
2013-05-31 09:09:00,45.6,30.8,28.70,North,-999,-999.0,-999.0,56,0.00,,,0.03,WSDL version 420,2013-05-31 15:09:00,
2013-05-31 09:14:00,45.5,31.4,28.70,North,-999,-999.0,-999.0,57,0.00,,,0.03,WSDL version 420,2013-05-31 15:14:00,
2013-05-31 09:19:00,45.5,31.3,28.70,North,-999,-999.0,-999.0,58,0.00,,,0.03,WSDL version 420,2013-05-31 15:19:00,
2013-05-31 09:24:00,45.4,31.7,28.70,North,-999,-999.0,-999.0,58,0.00,,,0.03,WSDL version 420,2013-05-31 15:24:00,
2013-05-31 09:29:00,45.3,31.4,28.70,North,-999,-999.0,-999.0,58,0.00,,,0.03,WSDL version 420,2013-05-31 15:29:00,
2013-05-31 09:34:00,45.1,31.6,28.70,North,-999,-999.0,-999.0,60,0.00,,,0.03,WSDL version 420,2013-05-31 15:34:00,
2013-05-31 09:39:00,45.1,32.6,28.70,North,-999,-999.0,-999.0,61,-99.99,,,-99.99,WSDL version 420,2013-05-31 15:39:00,
2013-05-31 09:44:00,45.1,32.1,28.73,North,-999,-999.0,-999.0,60,0.00,,,0.03,WSDL version 420,2013-05-31 15:44:00,
2013-05-31 09:49:00,45.2,32.2,28.73,North,-999,-999.0,-999.0,60,0.00,,,0.03,WSDL version 420,2013-05-31 15:49:00,
2013-05-31 09:54:00,45.4,31.8,28.73,North,-999,-999.0,-999.0,58,0.00,,,0.03,WSDL version 420,2013-05-31 15:54:00,
2013-05-31 09:59:00,45.5,30.9,28.73,North,-999,-999.0,-999.0,55,0.00,,,0.03,WSDL version 420,2013-05-31 15:59:00,
2013-05-31 10:04:00,45.8,31.0,28.73,North,-999,-999.0,-999.0,56,0.00,,,0.03,WSDL version 420,2013-05-31 16:04:00,
2013-05-31 10:09:00,45.9,31.1,28.73,North,-999,-999.0,-999.0,56,-99.99,,,-99.99,WSDL version 420,2013-05-31 16:09:00,
2013-05-31 10:14:00,46.0,30.7,28.73,North,-999,-999.0,-999.0,55,0.00,,,0.03,WSDL version 420,2013-05-31 16:14:00,
2013-05-31 10:19:00,46.0,30.8,28.73,North,-999,-999.0,-999.0,55,0.00,,,0.03,WSDL version 420,2013-05-31 16:19:00,
2013-05-31 10:24:00,46.3,30.8,28.73,North,-999,-999.0,-999.0,55,0.00,,,0.03,WSDL version 420,2013-05-31 16:24:00,
2013-05-31 10:29:00,46.5,30.5,28.73,North,-999,-999.0,-999.0,53,0.00,,,0.03,WSDL version 420,2013-05-31 16:29:00,
2013-05-31 10:34:00,46.7,30.8,28.73,North,-999,-999.0,-999.0,54,0.00,,,0.03,WSDL version 420,2013-05-31 16:34:00,
2013-05-31 10:39:00,46.9,30.9,28.73,North,-999,-999.0,-999.0,53,0.00,,,0.03,WSDL version 420,2013-05-31 16:39:00,
2013-05-31 10:44:00,46.9,30.9,28.73,North,-999,-999.0,-999.0,53,0.00,,,0.03,WSDL version 420,2013-05-31 16:44:00,
2013-05-31 10:49:00,47.0,30.8,28.73,North,-999,-999.0,-999.0,53,0.00,,,0.03,WSDL version 420,2013-05-31 16:49:00,
2013-05-31 10:54:00,47.3,30.7,28.73,North,-999,-999.0,-999.0,52,0.00,,,0.03,WSDL version 420,2013-05-31 16:54:00,
2013-05-31 10:59:00,47.1,31.5,28.73,North,-999,-999.0,-999.0,55,0.00,,,0.03,WSDL version 420,2013-05-31 16:59:00,
2013-05-31 11:04:00,47.1,31.7,28.73,North,-999,-999.0,-999.0,55,0.00,,,0.03,WSDL version 420,2013-05-31 17:04:00,
2013-05-31 11:09:00,46.9,32.2,28.73,North,-999,-999.0,-999.0,57,0.00,,,0.03,WSDL version 420,2013-05-31 17:09:00,
2013-05-31 11:14:00,46.5,32.1,28.73,North,-999,-999.0,-999.0,58,0.00,,,0.03,WSDL version 420,2013-05-31 17:14:00,
2013-05-31 11:19:00,46.3,33.5,28.73,North,-999,-999.0,-999.0,60,0.00,,,0.03,WSDL version 420,2013-05-31 17:19:00,
2013-05-31 11:24:00,46.4,33.1,28.73,North,-999,-999.0,-999.0,60,0.00,,,0.03,WSDL version 420,2013-05-31 17:24:00,
2013-05-31 11:29:00,46.6,33.7,28.73,North,-999,-999.0,-999.0,60,0.00,,,0.03,WSDL version 420,2013-05-31 17:29:00,
2013-05-31 11:34:00,46.9,34.1,28.73,North,-999,-999.0,-999.0,61,0.00,,,0.03,WSDL version 420,2013-05-31 17:34:00,
2013-05-31 11:39:00,47.3,33.3,28.73,North,-999,-999.0,-999.0,57,0.00,,,0.03,WSDL version 420,2013-05-31 17:39:00,
2013-05-31 11:44:00,47.6,33.4,28.73,North,-999,-999.0,-999.0,59,0.00,,,0.03,WSDL version 420,2013-05-31 17:44:00,
2013-05-31 11:49:00,47.9,33.2,28.73,North,-999,-999.0,-999.0,56,0.00,,,0.03,WSDL version 420,2013-05-31 17:49:00,
2013-05-31 11:54:00,47.6,32.7,28.73,North,-999,-999.0,-999.0,56,0.00,,,0.03,WSDL version 420,2013-05-31 17:54:00,
2013-05-31 11:59:00,47.7,33.5,28.76,North,-999,-999.0,-999.0,57,0.00,,,0.03,WSDL version 420,2013-05-31 17:59:00,
2013-05-31 12:04:00,47.3,33.4,28.76,North,-999,-999.0,-999.0,59,0.00,,,0.03,WSDL version 420,2013-05-31 18:04:00,
2013-05-31 12:09:00,47.1,33.7,28.76,North,-999,-999.0,-999.0,59,0.00,,,0.03,WSDL version 420,2013-05-31 18:09:00,
2013-05-31 12:14:00,47.0,34.2,28.76,North,-999,-999.0,-999.0,60,0.00,,,0.03,WSDL version 420,2013-05-31 18:14:00,
2013-05-31 12:19:00,46.9,34.5,28.76,North,-999,-999.0,-999.0,62,0.00,,,0.03,WSDL version 420,2013-05-31 18:19:00,
2013-05-31 12:24:00,46.9,34.5,28.76,North,-999,-999.0,-999.0,62,0.00,,,0.03,WSDL version 420,2013-05-31 18:24:00,
2013-05-31 12:29:00,46.9,35.0,28.76,North,-999,-999.0,-999.0,63,0.00,,,0.03,WSDL version 420,2013-05-31 18:29:00,
2013-05-31 12:34:00,46.9,35.1,28.76,North,-999,-999.0,-999.0,64,0.00,,,0.03,WSDL version 420,2013-05-31 18:34:00,
2013-05-31 12:39:00,47.1,36.1,28.76,North,-999,-999.0,-999.0,65,0.00,,,0.03,WSDL version 420,2013-05-31 18:39:00,
2013-05-31 12:44:00,47.1,35.6,28.76,North,-999,-999.0,-999.0,63,0.00,,,0.03,WSDL version 420,2013-05-31 18:44:00,
2013-05-31 12:49:00,47.2,35.3,28.76,North,-999,-999.0,-999.0,63,0.00,,,0.03,WSDL version 420,2013-05-31 18:49:00,
2013-05-31 12:54:00,47.5,35.5,28.76,North,-999,-999.0,-999.0,63,0.00,,,0.03,WSDL version 420,2013-05-31 18:54:00,
2013-05-31 12:59:00,47.8,34.8,28.76,North,-999,-999.0,-999.0,59,0.00,,,0.03,WSDL version 420,2013-05-31 18:59:00,
2013-05-31 13:04:00,48.1,34.2,28.76,North,-999,-999.0,-999.0,59,0.00,,,0.03,WSDL version 420,2013-05-31 19:04:00,
2013-05-31 13:09:00,48.2,34.2,28.76,North,-999,-999.0,-999.0,58,0.00,,,0.03,WSDL version 420,2013-05-31 19:09:00,
2013-05-31 13:14:00,48.5,33.8,28.76,North,-999,-999.0,-999.0,57,0.00,,,0.03,WSDL version 420,2013-05-31 19:14:00,
2013-05-31 13:19:00,48.4,32.7,28.79,North,-999,-999.0,-999.0,55,0.00,,,0.03,WSDL version 420,2013-05-31 19:19:00,
2013-05-31 13:24:00,48.4,33.5,28.79,North,-999,-999.0,-999.0,56,0.00,,,0.03,WSDL version 420,2013-05-31 19:24:00,
2013-05-31 13:29:00,48.4,34.4,28.79,North,-999,-999.0,-999.0,60,0.00,,,0.03,WSDL version 420,2013-05-31 19:29:00,
2013-05-31 13:34:00,48.0,34.4,28.79,North,-999,-999.0,-999.0,59,0.00,,,0.03,WSDL version 420,2013-05-31 19:34:00,
2013-05-31 13:39:00,48.1,35.0,28.79,North,-999,-999.0,-999.0,60,0.00,,,0.03,WSDL version 420,2013-05-31 19:39:00,
2013-05-31 13:44:00,48.2,35.4,28.79,North,-999,-999.0,-999.0,63,-99.99,,,-99.99,WSDL version 420,2013-05-31 19:44:00,
2013-05-31 13:49:00,48.1,35.8,28.79,North,-999,-999.0,-999.0,63,0.00,,,0.03,WSDL version 420,2013-05-31 19:49:00,
2013-05-31 13:54:00,47.9,36.0,28.79,North,-999,-999.0,-999.0,63,0.00,,,0.03,WSDL version 420,2013-05-31 19:54:00,
2013-05-31 13:59:00,47.8,35.9,28.79,North,-999,-999.0,-999.0,64,0.00,,,0.03,WSDL version 420,2013-05-31 19:59:00,
2013-05-31 14:04:00,47.6,36.9,28.79,North,-999,-999.0,-999.0,68,0.00,,,0.03,WSDL version 420,2013-05-31 20:04:00,
2013-05-31 14:09:00,47.4,37.9,28.79,North,-999,-999.0,-999.0,70,0.00,,,0.03,WSDL version 420,2013-05-31 20:09:00,
2013-05-31 14:14:00,47.4,39.0,28.79,North,-999,-999.0,-999.0,74,0.00,,,0.03,WSDL version 420,2013-05-31 20:14:00,
2013-05-31 14:19:00,47.5,39.9,28.79,North,-999,-999.0,-999.0,75,0.00,,,0.03,WSDL version 420,2013-05-31 20:19:00,
2013-05-31 14:24:00,48.2,40.1,28.79,North,-999,-999.0,-999.0,73,0.00,,,0.03,WSDL version 420,2013-05-31 20:24:00,
2013-05-31 14:29:00,48.2,40.3,28.79,North,-999,-999.0,-999.0,74,-99.99,,,-99.99,WSDL version 420,2013-05-31 20:29:00,
2013-05-31 14:34:00,48.1,39.9,28.79,North,-999,-999.0,-999.0,74,0.00,,,0.03,WSDL version 420,2013-05-31 20:34:00,
2013-05-31 14:39:00,48.9,41.1,28.79,North,-999,-999.0,-999.0,74,0.00,,,0.03,WSDL version 420,2013-05-31 20:39:00,
2013-05-31 14:44:00,48.6,40.1,28.82,North,-999,-999.0,-999.0,71,0.00,,,0.03,WSDL version 420,2013-05-31 20:44:00,
2013-05-31 14:49:00,48.0,39.6,28.82,North,-999,-999.0,-999.0,73,0.00,,,0.03,WSDL version 420,2013-05-31 20:49:00,
2013-05-31 14:54:00,-999.0,-99.9,28.82,North,-999,-999.0,-999.0,-999,0.00,,,0.03,WSDL version 420,2013-05-31 20:54:00,
2013-05-31 14:59:00,47.9,40.3,28.82,North,-999,-999.0,-999.0,74,-99.99,,,-99.99,WSDL version 420,2013-05-31 20:59:00,
2013-05-31 15:04:00,47.6,39.8,28.82,North,-999,-999.0,-999.0,75,0.00,,,0.03,WSDL version 420,2013-05-31 21:04:00,
2013-05-31 15:09:00,47.6,40.3,28.82,North,-999,-999.0,-999.0,76,0.00,,,0.03,WSDL version 420,2013-05-31 21:09:00,
2013-05-31 15:14:00,47.4,40.5,28.82,North,-999,-999.0,-999.0,77,0.00,,,0.03,WSDL version 420,2013-05-31 21:14:00,
2013-05-31 15:19:00,47.1,40.7,28.82,North,-999,-999.0,-999.0,80,0.05,,,0.08,WSDL version 420,2013-05-31 21:19:00,
2013-05-31 15:24:00,47.1,40.8,28.82,North,-999,-999.0,-999.0,77,0.05,,,0.08,WSDL version 420,2013-05-31 21:24:00,
2013-05-31 15:29:00,47.1,39.7,28.82,North,-999,-999.0,-999.0,75,0.05,,,0.08,WSDL version 420,2013-05-31 21:29:00,
2013-05-31 15:34:00,47.1,39.7,28.82,North,-999,-999.0,-999.0,76,0.05,,,0.08,WSDL version 420,2013-05-31 21:34:00,
2013-05-31 15:39:00,47.1,39.6,28.82,North,-999,-999.0,-999.0,75,0.05,,,0.08,WSDL version 420,2013-05-31 21:39:00,
2013-05-31 15:44:00,47.2,39.6,28.82,North,-999,-999.0,-999.0,74,0.05,,,0.08,WSDL version 420,2013-05-31 21:44:00,
2013-05-31 15:49:00,47.2,38.9,28.82,North,-999,-999.0,-999.0,71,0.05,,,0.08,WSDL version 420,2013-05-31 21:49:00,
2013-05-31 15:54:00,47.1,38.5,28.82,North,-999,-999.0,-999.0,72,0.05,,,0.08,WSDL version 420,2013-05-31 21:54:00,
2013-05-31 15:59:00,47.2,38.6,28.82,North,-999,-999.0,-999.0,72,0.05,,,0.08,WSDL version 420,2013-05-31 21:59:00,
2013-05-31 16:04:00,47.3,38.1,28.82,North,-999,-999.0,-999.0,70,0.05,,,0.08,WSDL version 420,2013-05-31 22:04:00,
2013-05-31 16:09:00,47.3,37.8,28.82,North,-999,-999.0,-999.0,69,0.05,,,0.08,WSDL version 420,2013-05-31 22:09:00,
2013-05-31 16:14:00,47.2,37.8,28.82,North,-999,-999.0,-999.0,69,0.05,,,0.08,WSDL version 420,2013-05-31 22:14:00,
2013-05-31 16:19:00,47.1,37.7,28.82,North,-999,-999.0,-999.0,70,0.00,,,0.08,WSDL version 420,2013-05-31 22:19:00,
2013-05-31 16:24:00,46.9,37.6,28.82,North,-999,-999.0,-999.0,69,0.00,,,0.08,WSDL version 420,2013-05-31 22:24:00,
2013-05-31 16:29:00,46.8,37.4,28.82,North,-999,-999.0,-999.0,70,0.00,,,0.08,WSDL version 420,2013-05-31 22:29:00,
2013-05-31 16:34:00,46.9,38.3,28.85,North,-999,-999.0,-999.0,73,0.00,,,0.08,WSDL version 420,2013-05-31 22:34:00,
2013-05-31 16:39:00,46.9,38.2,28.85,North,-999,-999.0,-999.0,71,0.00,,,0.08,WSDL version 420,2013-05-31 22:39:00,
2013-05-31 16:44:00,46.7,38.0,28.85,North,-999,-999.0,-999.0,72,0.00,,,0.08,WSDL version 420,2013-05-31 22:44:00,
2013-05-31 16:49:00,46.5,38.5,28.85,North,-999,-999.0,-999.0,74,0.00,,,0.08,WSDL version 420,2013-05-31 22:49:00,
2013-05-31 16:54:00,46.3,39.7,28.85,North,-999,-999.0,-999.0,79,0.00,,,0.08,WSDL version 420,2013-05-31 22:54:00,
2013-05-31 16:59:00,46.3,40.4,28.82,North,-999,-999.0,-999.0,80,0.00,,,0.08,WSDL version 420,2013-05-31 22:59:00,
2013-05-31 17:04:00,46.5,39.9,28.82,North,-999,-999.0,-999.0,77,0.00,,,0.08,WSDL version 420,2013-05-31 23:04:00,
2013-05-31 17:09:00,46.4,38.7,28.82,North,-999,-999.0,-999.0,74,0.00,,,0.08,WSDL version 420,2013-05-31 23:09:00,
2013-05-31 17:14:00,46.4,38.9,28.85,North,-999,-999.0,-999.0,75,0.00,,,0.08,WSDL version 420,2013-05-31 23:14:00,
2013-05-31 17:19:00,46.2,39.3,28.85,North,-999,-999.0,-999.0,78,0.00,,,0.08,WSDL version 420,2013-05-31 23:19:00,
2013-05-31 17:24:00,46.1,40.4,28.85,North,-999,-999.0,-999.0,81,0.00,,,0.08,WSDL version 420,2013-05-31 23:24:00,
2013-05-31 17:29:00,46.0,40.7,28.85,North,-999,-999.0,-999.0,82,0.00,,,0.08,WSDL version 420,2013-05-31 23:29:00,
2013-05-31 17:34:00,46.0,40.9,28.85,North,-999,-999.0,-999.0,82,0.00,,,0.08,WSDL version 420,2013-05-31 23:34:00,
2013-05-31 17:39:00,45.9,40.4,28.85,North,-999,-999.0,-999.0,80,0.00,,,0.08,WSDL version 420,2013-05-31 23:39:00,
2013-05-31 17:44:00,46.0,38.9,28.88,North,-999,-999.0,-999.0,75,0.00,,,0.08,WSDL version 420,2013-05-31 23:44:00,
2013-05-31 17:49:00,46.0,38.4,28.88,North,-999,-999.0,-999.0,74,0.00,,,0.08,WSDL version 420,2013-05-31 23:49:00,
2013-05-31 17:54:00,45.9,38.1,28.88,North,-999,-999.0,-999.0,75,0.00,,,0.08,WSDL version 420,2013-05-31 23:54:00,
2013-05-31 17:59:00,45.7,37.9,28.85,North,-999,-999.0,-999.0,74,0.04,,,0.12,WSDL version 420,2013-05-31 23:59:00,
2013-05-31 18:04:00,45.7,37.5,28.85,North,-999,-999.0,-999.0,73,0.04,,,0.12,WSDL version 420,2013-06-01 00:04:00,
2013-05-31 18:09:00,45.6,37.7,28.85,North,-999,-999.0,-999.0,74,0.04,,,0.12,WSDL version 420,2013-06-01 00:09:00,
2013-05-31 18:14:00,45.7,37.9,28.88,North,-999,-999.0,-999.0,74,0.04,,,0.12,WSDL version 420,2013-06-01 00:14:00,
2013-05-31 18:19:00,45.5,38.2,28.88,North,-999,-999.0,-999.0,76,0.04,,,0.12,WSDL version 420,2013-06-01 00:19:00,
2013-05-31 18:24:00,45.5,38.4,28.88,North,-999,-999.0,-999.0,76,0.04,,,0.12,WSDL version 420,2013-06-01 00:24:00,
2013-05-31 18:29:00,45.4,37.9,28.91,North,-999,-999.0,-999.0,75,0.04,,,0.12,WSDL version 420,2013-06-01 00:29:00,
2013-05-31 18:34:00,45.2,37.8,28.91,North,-999,-999.0,-999.0,76,0.04,,,0.12,WSDL version 420,2013-06-01 00:34:00,
2013-05-31 18:39:00,45.0,38.6,28.91,North,-999,-999.0,-999.0,78,0.04,,,0.12,WSDL version 420,2013-06-01 00:39:00,
2013-05-31 18:44:00,44.7,37.4,28.91,North,-999,-999.0,-999.0,75,0.04,,,0.12,WSDL version 420,2013-06-01 00:44:00,
2013-05-31 18:49:00,44.5,37.2,28.91,North,-999,-999.0,-999.0,77,0.04,,,0.12,WSDL version 420,2013-06-01 00:49:00,
2013-05-31 18:54:00,44.2,38.2,28.91,North,-999,-999.0,-999.0,80,0.04,,,0.12,WSDL version 420,2013-06-01 00:54:00,
2013-05-31 18:59:00,44.1,38.5,28.91,North,-999,-999.0,-999.0,81,0.00,,,0.12,WSDL version 420,2013-06-01 00:59:00,
2013-05-31 19:04:00,44.1,38.7,28.91,North,-999,-999.0,-999.0,82,0.00,,,0.12,WSDL version 420,2013-06-01 01:04:00,
2013-05-31 19:09:00,44.0,39.3,28.91,North,-999,-999.0,-999.0,84,0.00,,,0.12,WSDL version 420,2013-06-01 01:09:00,
2013-05-31 19:14:00,43.9,39.8,28.88,North,-999,-999.0,-999.0,86,0.00,,,0.12,WSDL version 420,2013-06-01 01:14:00,
2013-05-31 19:19:00,43.9,39.8,28.88,North,-999,-999.0,-999.0,86,0.00,,,0.12,WSDL version 420,2013-06-01 01:19:00,
2013-05-31 19:24:00,43.9,39.6,28.88,North,-999,-999.0,-999.0,84,0.00,,,0.12,WSDL version 420,2013-06-01 01:24:00,
2013-05-31 19:29:00,43.9,39.6,28.88,North,-999,-999.0,-999.0,86,-99.99,,,-99.99,WSDL version 420,2013-06-01 01:29:00,
2013-05-31 19:34:00,43.9,40.0,28.88,North,-999,-999.0,-999.0,87,-99.99,,,-99.99,WSDL version 420,2013-06-01 01:34:00,
2013-05-31 19:39:00,43.7,40.2,28.88,North,-999,-999.0,-999.0,88,-99.99,,,-99.99,WSDL version 420,2013-06-01 01:39:00,
2013-05-31 19:44:00,43.6,40.7,28.88,North,-999,-999.0,-999.0,91,0.00,,,0.12,WSDL version 420,2013-06-01 01:44:00,
2013-05-31 19:49:00,43.5,41.3,28.91,North,-999,-999.0,-999.0,92,0.00,,,0.12,WSDL version 420,2013-06-01 01:49:00,
2013-05-31 19:54:00,43.5,41.7,28.91,North,-999,-999.0,-999.0,93,0.00,,,0.12,WSDL version 420,2013-06-01 01:54:00,
2013-05-31 19:59:00,43.5,42.1,28.91,North,-999,-999.0,-999.0,96,0.00,,,0.12,WSDL version 420,2013-06-01 01:59:00,
2013-05-31 20:04:00,43.4,42.4,28.91,North,-999,-999.0,-999.0,97,0.00,,,0.12,WSDL version 420,2013-06-01 02:04:00,
2013-05-31 20:09:00,43.3,42.7,28.91,North,-999,-999.0,-999.0,98,0.00,,,0.12,WSDL version 420,2013-06-01 02:09:00,
2013-05-31 20:14:00,43.3,43.0,28.94,North,-999,-999.0,-999.0,99,0.00,,,0.12,WSDL version 420,2013-06-01 02:14:00,
2013-05-31 20:19:00,43.3,43.1,28.94,North,-999,-999.0,-999.0,100,0.00,,,0.12,WSDL version 420,2013-06-01 02:19:00,
2013-05-31 20:24:00,43.3,43.3,28.94,North,-999,-999.0,-999.0,100,0.00,,,0.12,WSDL version 420,2013-06-01 02:24:00,
2013-05-31 20:29:00,43.3,43.3,28.97,North,-999,-999.0,-999.0,100,0.00,,,0.12,WSDL version 420,2013-06-01 02:29:00,
2013-05-31 20:34:00,43.3,43.3,28.97,North,-999,-999.0,-999.0,100,0.00,,,0.12,WSDL version 420,2013-06-01 02:34:00,
2013-05-31 20:39:00,43.3,43.3,28.97,North,-999,-999.0,-999.0,100,0.00,,,0.12,WSDL version 420,2013-06-01 02:39:00,
2013-05-31 20:44:00,43.4,43.4,28.97,North,-999,-999.0,-999.0,100,0.00,,,0.12,WSDL version 420,2013-06-01 02:44:00,
2013-05-31 20:49:00,43.5,43.5,28.97,North,-999,-999.0,-999.0,100,0.00,,,0.12,WSDL version 420,2013-06-01 02:49:00,
2013-05-31 20:54:00,43.5,43.5,28.97,North,-999,-999.0,-999.0,100,0.04,,,0.16,WSDL version 420,2013-06-01 02:54:00,
2013-05-31 20:59:00,43.5,43.5,28.94,North,-999,-999.0,-999.0,100,0.04,,,0.16,WSDL version 420,2013-06-01 02:59:00,
2013-05-31 21:04:00,43.5,43.5,28.94,North,-999,-999.0,-999.0,100,0.04,,,0.16,WSDL version 420,2013-06-01 03:04:00,
2013-05-31 21:09:00,43.6,43.6,28.94,North,-999,-999.0,-999.0,100,0.04,,,0.16,WSDL version 420,2013-06-01 03:09:00,
2013-05-31 21:14:00,43.7,43.7,28.97,North,-999,-999.0,-999.0,100,0.04,,,0.16,WSDL version 420,2013-06-01 03:14:00,
2013-05-31 21:19:00,43.7,43.7,28.97,North,-999,-999.0,-999.0,100,0.04,,,0.16,WSDL version 420,2013-06-01 03:19:00,
2013-05-31 21:24:00,43.7,43.7,28.97,North,-999,-999.0,-999.0,100,0.04,,,0.16,WSDL version 420,2013-06-01 03:24:00,
2013-05-31 21:29:00,43.7,43.7,29.00,North,-999,-999.0,-999.0,100,0.04,,,0.16,WSDL version 420,2013-06-01 03:29:00,
2013-05-31 21:34:00,43.7,43.7,29.00,North,-999,-999.0,-999.0,100,0.04,,,0.16,WSDL version 420,2013-06-01 03:34:00,
2013-05-31 21:39:00,43.7,43.7,29.00,North,-999,-999.0,-999.0,100,0.04,,,0.16,WSDL version 420,2013-06-01 03:39:00,
2013-05-31 21:44:00,43.7,43.7,29.00,North,-999,-999.0,-999.0,100,0.04,,,0.16,WSDL version 420,2013-06-01 03:44:00,
2013-05-31 21:49:00,43.7,43.7,29.00,North,-999,-999.0,-999.0,100,0.08,,,0.20,WSDL version 420,2013-06-01 03:49:00,
2013-05-31 21:54:00,43.7,43.7,29.00,North,-999,-999.0,-999.0,100,-99.99,,,-99.99,WSDL version 420,2013-06-01 03:54:00,
2013-05-31 21:59:00,43.9,43.9,29.00,North,-999,-999.0,-999.0,100,0.04,,,0.20,WSDL version 420,2013-06-01 03:59:00,
2013-05-31 22:01:00,43.9,43.9,29.00,North,-999,-999.0,-999.0,100,0.04,,,0.20,WSDL version 420,2013-06-01 04:01:00,
2013-05-31 22:02:00,43.9,43.9,29.00,North,-999,-999.0,-999.0,100,0.04,,,0.20,WSDL version 420,2013-06-01 04:02:00,
2013-05-31 22:03:00,43.9,43.9,-100.00,North,-999,-999.0,-999.0,100,0.04,,,0.20,WSDL version 420,2013-06-01 04:03:00,
2013-05-31 22:08:00,43.9,43.9,29.00,North,-999,-999.0,-999.0,100,0.04,,,0.20,WSDL version 420,2013-06-01 04:08:00,
2013-05-31 22:09:00,43.9,43.9,29.00,North,-999,-999.0,-999.0,100,0.04,,,0.20,WSDL version 420,2013-06-01 04:09:00,
2013-05-31 22:14:00,43.9,43.9,29.03,North,-999,-999.0,-999.0,100,0.04,,,0.20,WSDL version 420,2013-06-01 04:14:00,
2013-05-31 22:19:00,43.9,43.9,29.03,North,-999,-999.0,-999.0,100,0.04,,,0.20,WSDL version 420,2013-06-01 04:19:00,
2013-05-31 22:24:00,43.9,43.9,29.03,North,-999,-999.0,-999.0,100,0.04,,,0.20,WSDL version 420,2013-06-01 04:24:00,
2013-05-31 22:29:00,43.9,43.9,29.03,North,-999,-999.0,-999.0,100,0.08,,,0.24,WSDL version 420,2013-06-01 04:29:00,
2013-05-31 22:34:00,44.0,44.0,29.03,North,-999,-999.0,-999.0,100,0.08,,,0.24,WSDL version 420,2013-06-01 04:34:00,
2013-05-31 22:39:00,44.1,44.1,29.03,North,-999,-999.0,-999.0,100,0.08,,,0.24,WSDL version 420,2013-06-01 04:39:00,
2013-05-31 22:44:00,44.1,44.1,29.03,North,-999,-999.0,-999.0,100,0.08,,,0.24,WSDL version 420,2013-06-01 04:44:00,
2013-05-31 22:49:00,44.1,44.1,29.03,North,-999,-999.0,-999.0,100,0.04,,,0.24,WSDL version 420,2013-06-01 04:49:00,
2013-05-31 22:54:00,44.1,44.1,29.03,North,-999,-999.0,-999.0,100,0.04,,,0.24,WSDL version 420,2013-06-01 04:54:00,
2013-05-31 22:59:00,44.1,44.1,29.03,North,-999,-999.0,-999.0,100,0.04,,,0.24,WSDL version 420,2013-06-01 04:59:00,
2013-05-31 23:04:00,44.2,44.2,29.03,North,-999,-999.0,-999.0,100,0.04,,,0.24,WSDL version 420,2013-06-01 05:04:00,
2013-05-31 23:09:00,44.3,44.3,29.03,North,-999,-999.0,-999.0,100,0.04,,,0.24,WSDL version 420,2013-06-01 05:09:00,
2013-05-31 23:14:00,44.6,44.6,29.03,North,-999,-999.0,-999.0,100,0.04,,,0.24,WSDL version 420,2013-06-01 05:14:00,
2013-05-31 23:19:00,44.6,44.6,29.00,North,-999,-999.0,-999.0,100,0.08,,,0.28,WSDL version 420,2013-06-01 05:19:00,
2013-05-31 23:24:00,44.6,44.6,29.00,North,-999,-999.0,-999.0,100,0.08,,,0.28,WSDL version 420,2013-06-01 05:24:00,
2013-05-31 23:29:00,44.6,44.6,29.03,North,-999,-999.0,-999.0,100,0.04,,,0.28,WSDL version 420,2013-06-01 05:29:00,
2013-05-31 23:34:00,44.6,44.6,29.03,North,-999,-999.0,-999.0,100,0.04,,,0.28,WSDL version 420,2013-06-01 05:34:00,
2013-05-31 23:39:00,44.6,44.6,29.03,North,-999,-999.0,-999.0,100,0.04,,,0.28,WSDL version 420,2013-06-01 05:39:00,
2013-05-31 23:44:00,44.6,44.6,29.06,North,-999,-999.0,-999.0,100,0.04,,,0.28,WSDL version 420,2013-06-01 05:44:00,
2013-05-31 23:49:00,44.6,44.6,29.06,North,-999,-999.0,-999.0,100,0.04,,,0.28,WSDL version 420,2013-06-01 05:49:00,
2013-05-31 23:54:00,44.6,44.6,29.06,North,-999,-999.0,-999.0,100,0.04,,,0.28,WSDL version 420,2013-06-01 05:54:00,
2013-05-31 23:59:00,44.6,44.6,29.06,North,-999,-999.0,-999.0,100,0.09,,,0.33,WSDL version 420,2013-06-01 05:59:00,